createdAt,value
2018-09-12T00:05:52.000Z,1012.119
2018-09-12T00:15:52.000Z,1011.985
2018-09-12T00:25:52.000Z,1011.9
2018-09-12T00:35:52.000Z,1011.917
2018-09-12T00:45:52.000Z,1011.909
2018-09-12T00:55:52.000Z,1011.795
2018-09-12T01:05:52.000Z,1011.799
2018-09-12T01:15:52.000Z,1011.808
2018-09-12T01:25:52.000Z,1011.737
2018-09-12T01:35:52.000Z,1011.784
2018-09-12T01:45:52.000Z,1011.761
2018-09-12T01:55:52.000Z,1011.763
2018-09-12T02:05:52.000Z,1011.652
2018-09-12T02:15:52.000Z,1011.591
2018-09-12T02:25:53.000Z,1011.535
2018-09-12T02:35:52.000Z,1011.474
2018-09-12T02:45:52.000Z,1011.429
2018-09-12T02:55:52.000Z,1011.436
2018-09-12T03:05:52.000Z,1011.366
2018-09-12T03:15:53.000Z,1011.221
2018-09-12T03:25:52.000Z,1011.188
2018-09-12T03:35:52.000Z,1011.14
2018-09-12T03:45:52.000Z,1010.986
2018-09-12T03:55:52.000Z,1011.016
2018-09-12T04:05:52.000Z,1010.977
2018-09-12T04:15:52.000Z,1011.015
2018-09-12T04:25:53.000Z,1011.151
2018-09-12T04:35:53.000Z,1011.238
2018-09-12T04:45:53.000Z,1011.32
2018-09-12T04:55:53.000Z,1011.398
2018-09-12T05:05:53.000Z,1011.448
2018-09-12T05:15:53.000Z,1011.421
2018-09-12T05:25:53.000Z,1011.496
2018-09-12T05:35:53.000Z,1011.532
2018-09-12T05:45:53.000Z,1011.564
2018-09-12T05:55:53.000Z,1011.554
2018-09-12T06:05:53.000Z,1011.405
2018-09-12T06:15:53.000Z,1011.378
2018-09-12T06:25:53.000Z,1011.48
2018-09-12T06:35:53.000Z,1011.539
2018-09-12T06:45:53.000Z,1011.676
2018-09-12T06:55:53.000Z,1011.635
2018-09-12T07:05:53.000Z,1011.591
2018-09-12T07:15:53.000Z,1011.497
2018-09-12T07:25:53.000Z,1011.503
2018-09-12T07:35:53.000Z,1011.579
2018-09-12T07:45:53.000Z,1011.642
2018-09-12T07:55:53.000Z,1011.627
2018-09-12T08:05:53.000Z,1011.725
2018-09-12T08:15:53.000Z,1011.805
2018-09-12T08:25:53.000Z,1011.726
2018-09-12T08:35:53.000Z,1011.708
2018-09-12T08:45:53.000Z,1011.812
2018-09-12T08:55:53.000Z,1011.871
2018-09-12T09:05:53.000Z,1011.938
2018-09-12T09:15:53.000Z,1012.04
2018-09-12T09:25:53.000Z,1012.103
2018-09-12T09:35:53.000Z,1012.128
2018-09-12T09:45:53.000Z,1012.171
2018-09-12T09:55:53.000Z,1012.195
2018-09-12T10:05:53.000Z,1012.143
2018-09-12T10:15:53.000Z,1012.162
2018-09-12T10:25:53.000Z,1012.24
2018-09-12T10:35:53.000Z,1012.645
2018-09-12T10:45:53.000Z,1012.846
2018-09-12T10:55:53.000Z,1012.986
2018-09-12T11:05:53.000Z,1012.988
2018-09-12T11:25:53.000Z,1013.188
2018-09-12T11:35:53.000Z,1013.125
2018-09-12T11:45:53.000Z,1013.183
2018-09-12T11:55:53.000Z,1013.52
2018-09-12T12:05:53.000Z,1013.82
2018-09-12T12:15:53.000Z,1013.726
2018-09-12T12:25:54.000Z,1013.812
2018-09-12T12:35:53.000Z,1013.884
2018-09-12T12:45:54.000Z,1013.984
2018-09-12T12:55:54.000Z,1013.978
2018-09-12T13:05:54.000Z,1013.983
2018-09-12T13:15:54.000Z,1013.962
2018-09-12T13:25:54.000Z,1013.993
2018-09-12T13:35:54.000Z,1014.071
2018-09-12T13:45:54.000Z,1014.06
2018-09-12T13:55:54.000Z,1014.274
2018-09-12T14:05:54.000Z,1014.343
2018-09-12T14:15:54.000Z,1014.374
2018-09-12T14:25:54.000Z,1014.403
2018-09-12T14:35:54.000Z,1014.514
2018-09-12T14:45:54.000Z,1014.545
2018-09-12T14:55:54.000Z,1014.505
2018-09-12T15:05:54.000Z,1014.475
2018-09-12T15:15:54.000Z,1014.357
2018-09-12T15:25:54.000Z,1014.416
2018-09-12T15:35:54.000Z,1014.473
2018-09-12T15:45:54.000Z,1014.371
2018-09-12T15:55:54.000Z,1014.334
2018-09-12T16:05:54.000Z,1014.394
2018-09-12T16:15:54.000Z,1014.365
2018-09-12T16:25:54.000Z,1014.323
2018-09-12T16:35:54.000Z,1014.437
2018-09-12T16:45:54.000Z,1014.448
2018-09-12T16:55:54.000Z,1014.527
2018-09-12T17:05:58.000Z,1014.589
2018-09-12T17:15:55.000Z,1014.689
2018-09-12T17:25:54.000Z,1014.666
2018-09-12T17:35:54.000Z,1014.784
2018-09-12T17:45:54.000Z,1014.754
2018-09-12T17:55:54.000Z,1014.769
2018-09-12T18:05:54.000Z,1014.828
2018-09-12T18:15:54.000Z,1014.858
2018-09-12T18:25:54.000Z,1014.637
2018-09-12T18:35:54.000Z,1014.765
2018-09-12T18:45:54.000Z,1014.839
2018-09-12T18:55:54.000Z,1014.859
2018-09-12T19:05:55.000Z,1014.929
2018-09-12T19:15:54.000Z,1015.029
2018-09-12T19:25:54.000Z,1015.011
2018-09-12T19:35:54.000Z,1015.105
2018-09-12T19:45:54.000Z,1015.152
2018-09-12T19:55:54.000Z,1015.141
2018-09-12T20:05:54.000Z,1015.252
2018-09-12T20:15:56.000Z,1015.224
2018-09-12T20:25:54.000Z,1015.198
2018-09-12T20:35:54.000Z,1015.109
2018-09-12T20:45:54.000Z,1014.973
2018-09-12T20:55:54.000Z,1014.968
2018-09-12T21:05:55.000Z,1015
2018-09-12T21:15:55.000Z,1015.011
2018-09-12T21:25:55.000Z,1015.115
2018-09-12T21:35:55.000Z,1015.266
2018-09-12T21:45:55.000Z,1015.26
2018-09-12T21:55:55.000Z,1015.292
2018-09-12T22:05:55.000Z,1015.325
2018-09-12T22:15:55.000Z,1015.258
2018-09-12T22:25:55.000Z,1015.084
2018-09-12T22:35:55.000Z,1015.078
2018-09-12T22:45:55.000Z,1014.956
2018-09-12T22:55:55.000Z,1014.99
2018-09-12T23:05:55.000Z,1014.93
2018-09-12T23:15:55.000Z,1014.962
2018-09-12T23:25:55.000Z,1014.951
2018-09-12T23:35:55.000Z,1014.939
2018-09-12T23:45:55.000Z,1014.796
2018-09-12T23:55:55.000Z,1014.82
